sensor_id;sensor_type;location;lat;lon;timestamp;temperature;humidity
24446;DHT22;13347;50.984;5.822;2023-08-07T00:01:23;13.60;99.90
24446;DHT22;13347;50.984;5.822;2023-08-07T00:03:51;13.60;99.90
24446;DHT22;13347;50.984;5.822;2023-08-07T00:06:18;13.60;99.90
24446;DHT22;13347;50.984;5.822;2023-08-07T00:08:45;13.60;99.90
24446;DHT22;13347;50.984;5.822;2023-08-07T00:11:12;13.60;99.90
24446;DHT22;13347;50.984;5.822;2023-08-07T00:13:39;13.60;99.90
24446;DHT22;13347;50.984;5.822;2023-08-07T00:16:06;13.70;99.90
24446;DHT22;13347;50.984;5.822;2023-08-07T00:18:33;13.70;99.90
24446;DHT22;13347;50.984;5.822;2023-08-07T00:21:02;13.60;99.90
24446;DHT22;13347;50.984;5.822;2023-08-07T00:23:29;13.60;99.90
24446;DHT22;13347;50.984;5.822;2023-08-07T00:25:56;13.60;99.90
24446;DHT22;13347;50.984;5.822;2023-08-07T00:28:22;13.70;99.90
24446;DHT22;13347;50.984;5.822;2023-08-07T00:30:49;13.60;99.90
24446;DHT22;13347;50.984;5.822;2023-08-07T00:33:16;13.60;99.90
24446;DHT22;13347;50.984;5.822;2023-08-07T00:35:43;13.60;99.90
24446;DHT22;13347;50.984;5.822;2023-08-07T00:38:12;13.60;99.90
24446;DHT22;13347;50.984;5.822;2023-08-07T00:40:39;13.60;99.90
24446;DHT22;13347;50.984;5.822;2023-08-07T00:43:06;13.60;99.90
24446;DHT22;13347;50.984;5.822;2023-08-07T00:45:34;13.60;99.90
24446;DHT22;13347;50.984;5.822;2023-08-07T00:48:01;13.60;99.90
24446;DHT22;13347;50.984;5.822;2023-08-07T00:50:29;13.50;99.90
24446;DHT22;13347;50.984;5.822;2023-08-07T00:52:56;13.60;99.90
24446;DHT22;13347;50.984;5.822;2023-08-07T00:55:25;13.60;99.90
24446;DHT22;13347;50.984;5.822;2023-08-07T00:57:52;13.60;99.90
24446;DHT22;13347;50.984;5.822;2023-08-07T01:00:19;13.60;99.90
24446;DHT22;13347;50.984;5.822;2023-08-07T01:02:47;13.60;99.90
24446;DHT22;13347;50.984;5.822;2023-08-07T01:05:16;13.60;99.90
24446;DHT22;13347;50.984;5.822;2023-08-07T01:07:43;13.70;99.90
24446;DHT22;13347;50.984;5.822;2023-08-07T01:10:10;13.70;99.90
24446;DHT22;13347;50.984;5.822;2023-08-07T01:12:41;13.60;99.90
24446;DHT22;13347;50.984;5.822;2023-08-07T01:15:10;13.60;99.90
24446;DHT22;13347;50.984;5.822;2023-08-07T01:17:39;13.70;99.90
24446;DHT22;13347;50.984;5.822;2023-08-07T01:20:08;13.70;99.90
24446;DHT22;13347;50.984;5.822;2023-08-07T01:22:37;13.70;99.90
24446;DHT22;13347;50.984;5.822;2023-08-07T01:25:04;13.70;99.90
24446;DHT22;13347;50.984;5.822;2023-08-07T01:27:33;13.70;99.90
24446;DHT22;13347;50.984;5.822;2023-08-07T01:30:03;13.70;99.90
24446;DHT22;13347;50.984;5.822;2023-08-07T01:32:34;13.70;99.90
24446;DHT22;13347;50.984;5.822;2023-08-07T01:35:02;13.70;99.90
24446;DHT22;13347;50.984;5.822;2023-08-07T01:37:34;13.70;99.90
24446;DHT22;13347;50.984;5.822;2023-08-07T01:40:03;13.80;99.90
24446;DHT22;13347;50.984;5.822;2023-08-07T01:42:32;13.80;99.90
24446;DHT22;13347;50.984;5.822;2023-08-07T01:44:59;13.80;99.90
24446;DHT22;13347;50.984;5.822;2023-08-07T01:47:26;13.80;99.90
24446;DHT22;13347;50.984;5.822;2023-08-07T01:49:53;13.80;99.90
24446;DHT22;13347;50.984;5.822;2023-08-07T01:52:20;13.80;99.90
24446;DHT22;13347;50.984;5.822;2023-08-07T01:54:47;13.70;99.90
24446;DHT22;13347;50.984;5.822;2023-08-07T01:57:15;13.70;99.90
24446;DHT22;13347;50.984;5.822;2023-08-07T01:59:42;13.80;99.90
24446;DHT22;13347;50.984;5.822;2023-08-07T02:02:10;13.80;99.90
24446;DHT22;13347;50.984;5.822;2023-08-07T02:04:37;13.70;99.90
24446;DHT22;13347;50.984;5.822;2023-08-07T02:07:04;13.70;99.90
24446;DHT22;13347;50.984;5.822;2023-08-07T02:09:31;13.70;99.90
24446;DHT22;13347;50.984;5.822;2023-08-07T02:11:58;13.70;99.90
24446;DHT22;13347;50.984;5.822;2023-08-07T02:14:26;13.70;99.90
24446;DHT22;13347;50.984;5.822;2023-08-07T02:16:53;13.70;99.90
24446;DHT22;13347;50.984;5.822;2023-08-07T02:19:20;13.70;99.90
24446;DHT22;13347;50.984;5.822;2023-08-07T02:21:47;13.70;99.90
24446;DHT22;13347;50.984;5.822;2023-08-07T02:24:14;13.70;99.90
24446;DHT22;13347;50.984;5.822;2023-08-07T02:26:41;13.70;99.90
24446;DHT22;13347;50.984;5.822;2023-08-07T02:29:08;13.60;99.90
24446;DHT22;13347;50.984;5.822;2023-08-07T02:31:36;13.60;99.90
24446;DHT22;13347;50.984;5.822;2023-08-07T02:34:03;13.60;99.90
24446;DHT22;13347;50.984;5.822;2023-08-07T02:36:30;13.60;99.90
24446;DHT22;13347;50.984;5.822;2023-08-07T02:38:57;13.50;99.90
24446;DHT22;13347;50.984;5.822;2023-08-07T02:41:24;13.50;99.90
24446;DHT22;13347;50.984;5.822;2023-08-07T02:43:51;13.50;99.90
24446;DHT22;13347;50.984;5.822;2023-08-07T02:46:18;13.40;99.90
24446;DHT22;13347;50.984;5.822;2023-08-07T02:48:47;13.40;99.90
24446;DHT22;13347;50.984;5.822;2023-08-07T02:51:13;13.40;99.90
24446;DHT22;13347;50.984;5.822;2023-08-07T02:53:40;13.40;99.90
24446;DHT22;13347;50.984;5.822;2023-08-07T02:56:07;13.30;99.90
24446;DHT22;13347;50.984;5.822;2023-08-07T02:58:34;13.40;99.90
24446;DHT22;13347;50.984;5.822;2023-08-07T03:01:04;13.30;99.90
24446;DHT22;13347;50.984;5.822;2023-08-07T03:03:32;13.40;99.90
24446;DHT22;13347;50.984;5.822;2023-08-07T03:06:00;13.40;99.90
24446;DHT22;13347;50.984;5.822;2023-08-07T03:08:27;13.30;99.90
24446;DHT22;13347;50.984;5.822;2023-08-07T03:10:54;13.30;99.90
24446;DHT22;13347;50.984;5.822;2023-08-07T03:13:22;13.20;99.90
24446;DHT22;13347;50.984;5.822;2023-08-07T03:15:49;13.20;99.90
24446;DHT22;13347;50.984;5.822;2023-08-07T03:18:16;13.30;99.90
24446;DHT22;13347;50.984;5.822;2023-08-07T03:20:43;13.30;99.90
24446;DHT22;13347;50.984;5.822;2023-08-07T03:23:11;13.30;99.90
24446;DHT22;13347;50.984;5.822;2023-08-07T03:25:38;13.30;99.90
24446;DHT22;13347;50.984;5.822;2023-08-07T03:28:05;13.30;99.90
24446;DHT22;13347;50.984;5.822;2023-08-07T03:30:32;13.30;99.90
24446;DHT22;13347;50.984;5.822;2023-08-07T03:32:59;13.30;99.90
24446;DHT22;13347;50.984;5.822;2023-08-07T03:35:26;13.30;99.90
24446;DHT22;13347;50.984;5.822;2023-08-07T03:37:53;13.20;99.90
24446;DHT22;13347;50.984;5.822;2023-08-07T03:40:22;13.20;99.90
24446;DHT22;13347;50.984;5.822;2023-08-07T03:42:49;13.20;99.90
24446;DHT22;13347;50.984;5.822;2023-08-07T03:45:16;13.20;99.90
24446;DHT22;13347;50.984;5.822;2023-08-07T03:47:43;13.20;99.90
24446;DHT22;13347;50.984;5.822;2023-08-07T03:50:10;13.20;99.90
24446;DHT22;13347;50.984;5.822;2023-08-07T03:52:37;13.20;99.90
24446;DHT22;13347;50.984;5.822;2023-08-07T03:55:04;13.20;99.90
24446;DHT22;13347;50.984;5.822;2023-08-07T03:57:33;13.10;99.90
24446;DHT22;13347;50.984;5.822;2023-08-07T04:00:00;13.30;99.90
24446;DHT22;13347;50.984;5.822;2023-08-07T04:02:28;13.20;99.90
24446;DHT22;13347;50.984;5.822;2023-08-07T04:04:55;13.10;99.90
24446;DHT22;13347;50.984;5.822;2023-08-07T04:07:22;13.10;99.90
24446;DHT22;13347;50.984;5.822;2023-08-07T04:09:49;13.10;99.90
24446;DHT22;13347;50.984;5.822;2023-08-07T04:12:16;13.10;99.90
24446;DHT22;13347;50.984;5.822;2023-08-07T04:14:45;13.10;99.90
24446;DHT22;13347;50.984;5.822;2023-08-07T04:17:12;13.10;99.90
24446;DHT22;13347;50.984;5.822;2023-08-07T04:19:39;13.10;99.90
24446;DHT22;13347;50.984;5.822;2023-08-07T04:22:06;13.20;99.90
24446;DHT22;13347;50.984;5.822;2023-08-07T04:24:33;13.10;99.90
24446;DHT22;13347;50.984;5.822;2023-08-07T04:27:00;13.10;99.90
24446;DHT22;13347;50.984;5.822;2023-08-07T04:29:27;13.10;99.90
24446;DHT22;13347;50.984;5.822;2023-08-07T04:31:55;13.30;99.90
24446;DHT22;13347;50.984;5.822;2023-08-07T04:34:22;13.30;99.90
24446;DHT22;13347;50.984;5.822;2023-08-07T04:36:49;13.20;99.90
24446;DHT22;13347;50.984;5.822;2023-08-07T04:39:20;13.20;99.90
24446;DHT22;13347;50.984;5.822;2023-08-07T04:41:47;13.20;99.90
24446;DHT22;13347;50.984;5.822;2023-08-07T04:44:15;13.10;99.90
24446;DHT22;13347;50.984;5.822;2023-08-07T04:46:42;13.10;99.90
24446;DHT22;13347;50.984;5.822;2023-08-07T04:49:11;13.20;99.90
24446;DHT22;13347;50.984;5.822;2023-08-07T04:51:37;13.10;99.90
24446;DHT22;13347;50.984;5.822;2023-08-07T04:54:05;13.10;99.90
24446;DHT22;13347;50.984;5.822;2023-08-07T04:56:32;13.20;99.90
24446;DHT22;13347;50.984;5.822;2023-08-07T04:58:59;13.20;99.90
24446;DHT22;13347;50.984;5.822;2023-08-07T05:01:26;13.20;99.90
24446;DHT22;13347;50.984;5.822;2023-08-07T05:03:53;13.20;99.90
24446;DHT22;13347;50.984;5.822;2023-08-07T05:06:21;13.20;99.90
24446;DHT22;13347;50.984;5.822;2023-08-07T05:08:48;13.20;99.90
24446;DHT22;13347;50.984;5.822;2023-08-07T05:11:15;13.20;99.90
24446;DHT22;13347;50.984;5.822;2023-08-07T05:13:42;13.20;99.90
24446;DHT22;13347;50.984;5.822;2023-08-07T05:16:10;13.20;99.90
24446;DHT22;13347;50.984;5.822;2023-08-07T05:18:37;13.20;99.90
24446;DHT22;13347;50.984;5.822;2023-08-07T05:21:04;13.20;99.90
24446;DHT22;13347;50.984;5.822;2023-08-07T05:23:34;13.30;99.90
24446;DHT22;13347;50.984;5.822;2023-08-07T05:26:01;13.40;99.90
24446;DHT22;13347;50.984;5.822;2023-08-07T05:28:28;13.40;99.90
24446;DHT22;13347;50.984;5.822;2023-08-07T05:30:55;13.40;99.90
24446;DHT22;13347;50.984;5.822;2023-08-07T05:33:23;13.40;99.90
24446;DHT22;13347;50.984;5.822;2023-08-07T05:35:50;13.40;99.90
24446;DHT22;13347;50.984;5.822;2023-08-07T05:38:18;13.40;99.90
24446;DHT22;13347;50.984;5.822;2023-08-07T05:40:46;13.50;99.90
24446;DHT22;13347;50.984;5.822;2023-08-07T05:43:13;13.50;99.90
24446;DHT22;13347;50.984;5.822;2023-08-07T05:45:42;13.60;99.90
24446;DHT22;13347;50.984;5.822;2023-08-07T05:48:10;13.60;99.90
24446;DHT22;13347;50.984;5.822;2023-08-07T05:50:37;13.50;99.90
24446;DHT22;13347;50.984;5.822;2023-08-07T05:53:04;13.50;99.90
24446;DHT22;13347;50.984;5.822;2023-08-07T05:55:31;13.40;99.90
24446;DHT22;13347;50.984;5.822;2023-08-07T05:58:00;13.40;99.90
24446;DHT22;13347;50.984;5.822;2023-08-07T06:00:26;13.40;99.90
24446;DHT22;13347;50.984;5.822;2023-08-07T06:02:54;13.50;99.90
24446;DHT22;13347;50.984;5.822;2023-08-07T06:05:21;13.50;99.90
24446;DHT22;13347;50.984;5.822;2023-08-07T06:07:48;13.50;99.90
24446;DHT22;13347;50.984;5.822;2023-08-07T06:10:15;13.60;99.90
24446;DHT22;13347;50.984;5.822;2023-08-07T06:12:42;13.60;99.90
24446;DHT22;13347;50.984;5.822;2023-08-07T06:15:10;13.60;99.90
24446;DHT22;13347;50.984;5.822;2023-08-07T06:17:37;13.70;99.90
24446;DHT22;13347;50.984;5.822;2023-08-07T06:20:06;13.80;99.90
24446;DHT22;13347;50.984;5.822;2023-08-07T06:22:34;13.80;99.90
24446;DHT22;13347;50.984;5.822;2023-08-07T06:25:01;13.90;99.90
24446;DHT22;13347;50.984;5.822;2023-08-07T06:27:28;14.00;99.90
24446;DHT22;13347;50.984;5.822;2023-08-07T06:29:56;14.00;99.90
24446;DHT22;13347;50.984;5.822;2023-08-07T06:32:24;14.00;99.90
24446;DHT22;13347;50.984;5.822;2023-08-07T06:34:51;14.00;99.90
24446;DHT22;13347;50.984;5.822;2023-08-07T06:37:18;14.00;99.90
24446;DHT22;13347;50.984;5.822;2023-08-07T06:39:45;14.00;99.90
24446;DHT22;13347;50.984;5.822;2023-08-07T06:42:12;14.10;99.40
24446;DHT22;13347;50.984;5.822;2023-08-07T06:44:39;14.10;99.90
24446;DHT22;13347;50.984;5.822;2023-08-07T06:47:07;14.20;98.60
24446;DHT22;13347;50.984;5.822;2023-08-07T06:49:35;14.20;90.30
24446;DHT22;13347;50.984;5.822;2023-08-07T06:52:02;14.30;57.80
24446;DHT22;13347;50.984;5.822;2023-08-07T06:54:29;14.40;60.90
24446;DHT22;13347;50.984;5.822;2023-08-07T06:56:56;14.60;34.40
24446;DHT22;13347;50.984;5.822;2023-08-07T06:59:23;14.60;1.00
24446;DHT22;13347;50.984;5.822;2023-08-07T07:01:51;14.70;1.00
24446;DHT22;13347;50.984;5.822;2023-08-07T07:04:18;15.00;1.00
24446;DHT22;13347;50.984;5.822;2023-08-07T07:06:47;15.20;1.00
24446;DHT22;13347;50.984;5.822;2023-08-07T07:09:14;15.40;1.00
24446;DHT22;13347;50.984;5.822;2023-08-07T07:11:42;15.40;1.00
24446;DHT22;13347;50.984;5.822;2023-08-07T07:14:09;15.60;1.00
24446;DHT22;13347;50.984;5.822;2023-08-07T07:16:36;15.60;1.00
24446;DHT22;13347;50.984;5.822;2023-08-07T07:19:03;15.30;1.00
24446;DHT22;13347;50.984;5.822;2023-08-07T07:21:32;15.50;1.00
24446;DHT22;13347;50.984;5.822;2023-08-07T07:24:01;15.50;1.00
24446;DHT22;13347;50.984;5.822;2023-08-07T07:26:28;15.50;1.00
24446;DHT22;13347;50.984;5.822;2023-08-07T07:28:55;15.70;1.00
24446;DHT22;13347;50.984;5.822;2023-08-07T07:31:22;15.80;99.90
24446;DHT22;13347;50.984;5.822;2023-08-07T07:33:49;15.80;99.90
24446;DHT22;13347;50.984;5.822;2023-08-07T07:36:16;15.70;99.90
24446;DHT22;13347;50.984;5.822;2023-08-07T07:38:45;15.80;99.90
24446;DHT22;13347;50.984;5.822;2023-08-07T07:41:13;16.10;1.00
24446;DHT22;13347;50.984;5.822;2023-08-07T07:43:40;16.50;1.00
24446;DHT22;13347;50.984;5.822;2023-08-07T07:46:07;16.90;1.00
24446;DHT22;13347;50.984;5.822;2023-08-07T07:48:34;17.00;1.00
24446;DHT22;13347;50.984;5.822;2023-08-07T07:51:01;17.20;1.00
24446;DHT22;13347;50.984;5.822;2023-08-07T07:53:29;17.30;1.00
24446;DHT22;13347;50.984;5.822;2023-08-07T07:55:56;17.30;99.90
24446;DHT22;13347;50.984;5.822;2023-08-07T07:58:25;17.20;99.90
24446;DHT22;13347;50.984;5.822;2023-08-07T08:00:52;17.00;99.90
24446;DHT22;13347;50.984;5.822;2023-08-07T08:03:20;17.00;1.00
24446;DHT22;13347;50.984;5.822;2023-08-07T08:05:49;17.10;99.90
24446;DHT22;13347;50.984;5.822;2023-08-07T08:08:17;17.10;99.90
24446;DHT22;13347;50.984;5.822;2023-08-07T08:10:44;17.20;99.90
24446;DHT22;13347;50.984;5.822;2023-08-07T08:13:12;17.30;1.00
24446;DHT22;13347;50.984;5.822;2023-08-07T08:15:41;17.30;1.00
24446;DHT22;13347;50.984;5.822;2023-08-07T08:18:08;17.00;99.90
24446;DHT22;13347;50.984;5.822;2023-08-07T08:20:35;17.30;99.90
24446;DHT22;13347;50.984;5.822;2023-08-07T08:23:02;17.50;1.00
24446;DHT22;13347;50.984;5.822;2023-08-07T08:25:29;17.40;1.00
24446;DHT22;13347;50.984;5.822;2023-08-07T08:27:56;17.60;1.00
24446;DHT22;13347;50.984;5.822;2023-08-07T08:30:23;17.60;1.00
24446;DHT22;13347;50.984;5.822;2023-08-07T08:32:51;17.60;1.00
24446;DHT22;13347;50.984;5.822;2023-08-07T08:35:18;17.20;1.00
24446;DHT22;13347;50.984;5.822;2023-08-07T08:37:45;17.30;1.00
24446;DHT22;13347;50.984;5.822;2023-08-07T08:40:13;17.40;99.90
24446;DHT22;13347;50.984;5.822;2023-08-07T08:42:43;17.40;1.00
24446;DHT22;13347;50.984;5.822;2023-08-07T08:45:10;18.00;99.90
24446;DHT22;13347;50.984;5.822;2023-08-07T08:47:39;18.10;94.10
24446;DHT22;13347;50.984;5.822;2023-08-07T08:50:08;17.70;99.90
24446;DHT22;13347;50.984;5.822;2023-08-07T08:52:37;18.00;99.90
24446;DHT22;13347;50.984;5.822;2023-08-07T08:55:04;18.40;37.20
24446;DHT22;13347;50.984;5.822;2023-08-07T08:57:32;18.60;1.00
24446;DHT22;13347;50.984;5.822;2023-08-07T09:00:00;18.30;1.00
24446;DHT22;13347;50.984;5.822;2023-08-07T09:02:27;18.30;1.00
24446;DHT22;13347;50.984;5.822;2023-08-07T09:04:54;18.00;1.00
24446;DHT22;13347;50.984;5.822;2023-08-07T09:07:22;17.80;1.00
24446;DHT22;13347;50.984;5.822;2023-08-07T09:09:50;17.40;1.00
24446;DHT22;13347;50.984;5.822;2023-08-07T09:12:19;17.10;1.00
24446;DHT22;13347;50.984;5.822;2023-08-07T09:14:48;17.80;90.10
24446;DHT22;13347;50.984;5.822;2023-08-07T09:17:16;19.00;1.00
24446;DHT22;13347;50.984;5.822;2023-08-07T09:19:43;19.90;99.90
24446;DHT22;13347;50.984;5.822;2023-08-07T09:22:11;20.40;1.00
24446;DHT22;13347;50.984;5.822;2023-08-07T09:24:39;20.80;1.00
24446;DHT22;13347;50.984;5.822;2023-08-07T09:27:06;21.50;1.00
24446;DHT22;13347;50.984;5.822;2023-08-07T09:29:33;21.90;1.00
24446;DHT22;13347;50.984;5.822;2023-08-07T09:32:06;21.00;99.90
24446;DHT22;13347;50.984;5.822;2023-08-07T09:34:33;19.50;99.90
24446;DHT22;13347;50.984;5.822;2023-08-07T09:37:01;18.60;1.00
24446;DHT22;13347;50.984;5.822;2023-08-07T09:39:29;18.20;1.00
24446;DHT22;13347;50.984;5.822;2023-08-07T09:41:58;17.90;1.00
24446;DHT22;13347;50.984;5.822;2023-08-07T09:44:24;19.30;1.00
24446;DHT22;13347;50.984;5.822;2023-08-07T09:46:51;19.70;1.00
24446;DHT22;13347;50.984;5.822;2023-08-07T09:49:18;19.60;1.00
24446;DHT22;13347;50.984;5.822;2023-08-07T09:51:46;19.60;1.00
24446;DHT22;13347;50.984;5.822;2023-08-07T09:54:16;19.60;1.00
24446;DHT22;13347;50.984;5.822;2023-08-07T09:56:43;19.40;1.00
24446;DHT22;13347;50.984;5.822;2023-08-07T09:59:13;19.00;1.00
24446;DHT22;13347;50.984;5.822;2023-08-07T10:01:40;18.90;1.00
24446;DHT22;13347;50.984;5.822;2023-08-07T10:04:08;19.10;1.00
24446;DHT22;13347;50.984;5.822;2023-08-07T10:06:40;19.70;99.90
24446;DHT22;13347;50.984;5.822;2023-08-07T10:09:07;20.50;99.90
24446;DHT22;13347;50.984;5.822;2023-08-07T10:11:35;21.40;99.90
24446;DHT22;13347;50.984;5.822;2023-08-07T10:14:02;21.60;44.30
24446;DHT22;13347;50.984;5.822;2023-08-07T10:16:31;21.60;1.00
24446;DHT22;13347;50.984;5.822;2023-08-07T10:18:58;21.60;1.00
24446;DHT22;13347;50.984;5.822;2023-08-07T10:21:25;21.30;1.00
24446;DHT22;13347;50.984;5.822;2023-08-07T10:23:53;21.50;1.00
24446;DHT22;13347;50.984;5.822;2023-08-07T10:26:20;21.60;1.00
24446;DHT22;13347;50.984;5.822;2023-08-07T10:28:48;21.40;1.00
24446;DHT22;13347;50.984;5.822;2023-08-07T10:31:16;22.20;1.00
24446;DHT22;13347;50.984;5.822;2023-08-07T10:33:46;21.30;1.00
24446;DHT22;13347;50.984;5.822;2023-08-07T10:36:15;20.40;1.00
24446;DHT22;13347;50.984;5.822;2023-08-07T10:38:42;20.30;1.00
24446;DHT22;13347;50.984;5.822;2023-08-07T10:41:10;20.50;1.00
24446;DHT22;13347;50.984;5.822;2023-08-07T10:43:37;21.00;1.00
24446;DHT22;13347;50.984;5.822;2023-08-07T10:46:03;21.40;1.00
24446;DHT22;13347;50.984;5.822;2023-08-07T10:48:37;21.50;1.00
24446;DHT22;13347;50.984;5.822;2023-08-07T10:51:06;21.90;1.00
24446;DHT22;13347;50.984;5.822;2023-08-07T10:53:34;22.00;1.00
24446;DHT22;13347;50.984;5.822;2023-08-07T10:56:02;22.10;1.00
24446;DHT22;13347;50.984;5.822;2023-08-07T10:58:29;22.30;1.00
24446;DHT22;13347;50.984;5.822;2023-08-07T11:01:15;22.40;1.00
24446;DHT22;13347;50.984;5.822;2023-08-07T11:03:43;22.70;1.00
24446;DHT22;13347;50.984;5.822;2023-08-07T11:06:13;22.70;1.00
24446;DHT22;13347;50.984;5.822;2023-08-07T11:08:40;22.70;1.00
24446;DHT22;13347;50.984;5.822;2023-08-07T11:11:07;22.20;1.00
24446;DHT22;13347;50.984;5.822;2023-08-07T11:13:34;21.90;1.00
24446;DHT22;13347;50.984;5.822;2023-08-07T11:16:01;21.90;1.00
24446;DHT22;13347;50.984;5.822;2023-08-07T11:18:29;21.90;1.00
24446;DHT22;13347;50.984;5.822;2023-08-07T11:20:57;21.30;1.00
24446;DHT22;13347;50.984;5.822;2023-08-07T11:23:25;20.20;1.00
24446;DHT22;13347;50.984;5.822;2023-08-07T11:25:53;19.60;1.00
24446;DHT22;13347;50.984;5.822;2023-08-07T11:28:20;19.30;1.00
24446;DHT22;13347;50.984;5.822;2023-08-07T11:30:48;19.00;1.00
24446;DHT22;13347;50.984;5.822;2023-08-07T11:33:15;19.30;1.00
24446;DHT22;13347;50.984;5.822;2023-08-07T11:35:43;20.00;1.00
24446;DHT22;13347;50.984;5.822;2023-08-07T11:38:10;20.50;1.00
24446;DHT22;13347;50.984;5.822;2023-08-07T11:40:39;20.60;1.00
24446;DHT22;13347;50.984;5.822;2023-08-07T11:43:06;20.60;1.00
24446;DHT22;13347;50.984;5.822;2023-08-07T11:45:35;20.80;1.00
24446;DHT22;13347;50.984;5.822;2023-08-07T11:48:02;20.20;1.00
24446;DHT22;13347;50.984;5.822;2023-08-07T11:50:29;20.00;1.00
24446;DHT22;13347;50.984;5.822;2023-08-07T11:52:56;20.50;1.00
24446;DHT22;13347;50.984;5.822;2023-08-07T11:55:27;20.60;1.00
24446;DHT22;13347;50.984;5.822;2023-08-07T11:57:56;20.70;1.00
24446;DHT22;13347;50.984;5.822;2023-08-07T12:00:24;21.30;1.00
24446;DHT22;13347;50.984;5.822;2023-08-07T12:02:52;20.70;1.00
24446;DHT22;13347;50.984;5.822;2023-08-07T12:05:19;20.50;1.00
24446;DHT22;13347;50.984;5.822;2023-08-07T12:07:46;21.00;1.00
24446;DHT22;13347;50.984;5.822;2023-08-07T12:10:14;21.70;1.00
24446;DHT22;13347;50.984;5.822;2023-08-07T12:12:42;22.00;1.00
24446;DHT22;13347;50.984;5.822;2023-08-07T12:15:11;22.50;1.00
24446;DHT22;13347;50.984;5.822;2023-08-07T12:17:38;22.90;1.00
24446;DHT22;13347;50.984;5.822;2023-08-07T12:20:06;22.90;1.00
24446;DHT22;13347;50.984;5.822;2023-08-07T12:22:37;22.50;1.00
24446;DHT22;13347;50.984;5.822;2023-08-07T12:25:04;22.20;1.00
24446;DHT22;13347;50.984;5.822;2023-08-07T12:27:31;21.80;1.00
24446;DHT22;13347;50.984;5.822;2023-08-07T12:29:58;21.00;1.00
24446;DHT22;13347;50.984;5.822;2023-08-07T12:32:27;20.90;99.90
24446;DHT22;13347;50.984;5.822;2023-08-07T12:34:53;20.40;99.90
24446;DHT22;13347;50.984;5.822;2023-08-07T12:37:20;20.30;99.90
24446;DHT22;13347;50.984;5.822;2023-08-07T12:39:48;20.30;1.00
24446;DHT22;13347;50.984;5.822;2023-08-07T12:42:15;20.40;99.90
24446;DHT22;13347;50.984;5.822;2023-08-07T12:44:42;20.00;99.90
24446;DHT22;13347;50.984;5.822;2023-08-07T12:47:09;19.80;99.90
24446;DHT22;13347;50.984;5.822;2023-08-07T12:49:38;19.60;1.00
24446;DHT22;13347;50.984;5.822;2023-08-07T12:52:05;19.40;1.00
24446;DHT22;13347;50.984;5.822;2023-08-07T12:54:32;19.30;1.00
24446;DHT22;13347;50.984;5.822;2023-08-07T12:56:59;19.50;1.00
24446;DHT22;13347;50.984;5.822;2023-08-07T12:59:26;19.70;1.00
24446;DHT22;13347;50.984;5.822;2023-08-07T13:01:53;20.60;1.00
24446;DHT22;13347;50.984;5.822;2023-08-07T13:04:20;21.70;1.00
24446;DHT22;13347;50.984;5.822;2023-08-07T13:06:49;21.80;1.00
24446;DHT22;13347;50.984;5.822;2023-08-07T13:09:16;21.70;1.00
24446;DHT22;13347;50.984;5.822;2023-08-07T13:11:43;21.80;99.90
24446;DHT22;13347;50.984;5.822;2023-08-07T13:14:10;22.30;1.00
24446;DHT22;13347;50.984;5.822;2023-08-07T13:16:37;22.60;99.90
24446;DHT22;13347;50.984;5.822;2023-08-07T13:19:04;23.00;99.90
24446;DHT22;13347;50.984;5.822;2023-08-07T13:21:31;22.20;99.90
24446;DHT22;13347;50.984;5.822;2023-08-07T13:24:00;22.20;99.90
24446;DHT22;13347;50.984;5.822;2023-08-07T13:26:27;22.00;99.90
24446;DHT22;13347;50.984;5.822;2023-08-07T13:28:54;21.70;99.90
24446;DHT22;13347;50.984;5.822;2023-08-07T13:31:21;22.00;1.00
24446;DHT22;13347;50.984;5.822;2023-08-07T13:33:48;21.80;99.90
24446;DHT22;13347;50.984;5.822;2023-08-07T13:36:15;21.60;99.90
24446;DHT22;13347;50.984;5.822;2023-08-07T13:38:42;22.10;99.90
24446;DHT22;13347;50.984;5.822;2023-08-07T13:41:10;22.20;99.90
24446;DHT22;13347;50.984;5.822;2023-08-07T13:43:38;21.90;99.90
24446;DHT22;13347;50.984;5.822;2023-08-07T13:46:05;21.60;99.90
24446;DHT22;13347;50.984;5.822;2023-08-07T13:48:32;21.90;99.90
24446;DHT22;13347;50.984;5.822;2023-08-07T13:50:59;22.20;99.90
24446;DHT22;13347;50.984;5.822;2023-08-07T13:53:30;22.50;99.90
24446;DHT22;13347;50.984;5.822;2023-08-07T13:55:57;22.50;99.90
24446;DHT22;13347;50.984;5.822;2023-08-07T13:58:25;22.00;99.90
24446;DHT22;13347;50.984;5.822;2023-08-07T14:00:53;22.00;99.90
24446;DHT22;13347;50.984;5.822;2023-08-07T14:03:20;21.90;99.90
24446;DHT22;13347;50.984;5.822;2023-08-07T14:05:47;22.00;99.90
24446;DHT22;13347;50.984;5.822;2023-08-07T14:08:15;22.10;99.90
24446;DHT22;13347;50.984;5.822;2023-08-07T14:10:42;22.40;99.90
24446;DHT22;13347;50.984;5.822;2023-08-07T14:13:09;23.20;99.90
24446;DHT22;13347;50.984;5.822;2023-08-07T14:15:38;22.90;99.90
24446;DHT22;13347;50.984;5.822;2023-08-07T14:18:05;22.50;99.90
24446;DHT22;13347;50.984;5.822;2023-08-07T14:20:32;22.40;99.90
24446;DHT22;13347;50.984;5.822;2023-08-07T14:22:59;22.20;99.90
24446;DHT22;13347;50.984;5.822;2023-08-07T14:25:26;22.20;99.90
24446;DHT22;13347;50.984;5.822;2023-08-07T14:27:53;22.90;99.90
24446;DHT22;13347;50.984;5.822;2023-08-07T14:30:20;23.10;99.90
24446;DHT22;13347;50.984;5.822;2023-08-07T14:32:48;23.10;99.90
24446;DHT22;13347;50.984;5.822;2023-08-07T14:35:16;22.40;99.90
24446;DHT22;13347;50.984;5.822;2023-08-07T14:37:43;21.90;99.90
24446;DHT22;13347;50.984;5.822;2023-08-07T14:40:12;21.60;99.90
24446;DHT22;13347;50.984;5.822;2023-08-07T14:42:39;21.50;99.90
24446;DHT22;13347;50.984;5.822;2023-08-07T14:45:06;21.50;99.90
24446;DHT22;13347;50.984;5.822;2023-08-07T14:47:33;21.20;99.90
24446;DHT22;13347;50.984;5.822;2023-08-07T14:50:02;21.40;99.90
24446;DHT22;13347;50.984;5.822;2023-08-07T14:52:29;22.00;99.90
24446;DHT22;13347;50.984;5.822;2023-08-07T14:54:56;22.30;99.90
24446;DHT22;13347;50.984;5.822;2023-08-07T14:57:24;22.60;99.90
24446;DHT22;13347;50.984;5.822;2023-08-07T14:59:51;21.90;99.90
24446;DHT22;13347;50.984;5.822;2023-08-07T15:02:18;21.90;99.90
24446;DHT22;13347;50.984;5.822;2023-08-07T15:04:45;21.90;99.90
24446;DHT22;13347;50.984;5.822;2023-08-07T15:07:13;21.40;99.90
24446;DHT22;13347;50.984;5.822;2023-08-07T15:09:40;21.00;99.90
24446;DHT22;13347;50.984;5.822;2023-08-07T15:12:07;20.80;99.90
24446;DHT22;13347;50.984;5.822;2023-08-07T15:14:34;20.70;99.90
24446;DHT22;13347;50.984;5.822;2023-08-07T15:17:02;20.60;99.90
24446;DHT22;13347;50.984;5.822;2023-08-07T15:19:29;20.70;99.90
24446;DHT22;13347;50.984;5.822;2023-08-07T15:21:55;20.80;99.90
24446;DHT22;13347;50.984;5.822;2023-08-07T15:24:24;20.90;99.90
24446;DHT22;13347;50.984;5.822;2023-08-07T15:26:51;21.60;99.90
24446;DHT22;13347;50.984;5.822;2023-08-07T15:29:18;22.10;99.90
24446;DHT22;13347;50.984;5.822;2023-08-07T15:31:45;22.00;99.90
24446;DHT22;13347;50.984;5.822;2023-08-07T15:34:12;21.40;99.90
24446;DHT22;13347;50.984;5.822;2023-08-07T15:36:39;21.30;99.90